Terminal Aerodrome Forecast
Issued by NWS

Home | Current Version | Previous Version | Graphics & Text | Print | Product List | Glossary On
Versions: 1 2 3 4 5 6 7 8 9 10 11 12 13
464
FTUS45 KGGW 101449 AAA
TAFSDY
TAF AMD
KSDY 101449Z 1015/1112 32009KT P6SM FEW010 SCT200
     FM101800 33013KT P6SM SCT008 BKN050
     FM110000 36007KT P6SM BKN015 OVC035
     FM110800 VRB05KT P6SM BKN015
      AMD LTD TO CLD VIS AND WIND=

USA.gov is the U.S. government's official web portal to all federal, state and local government web resources and services.